This is the latest recevied weather packets stored in our database for station/object YO2MAS-13. If no packets are shown the sender has not sent any weather packets the latest 10 day(s).
| Time | Temp. | Humidity | Pressure | Rain* | Wind** | Luminosity | Snow |
|---|---|---|---|---|---|---|---|
| 1777716923 | 22.22° C | 42% | 1024.6 hPa | - | - | - | - |
| 1777716024 | 21.67° C | 42% | 1024.9 hPa | - | - | - | - |
| 1777715124 | 21.11° C | 43% | 1025.1 hPa | - | - | - | - |
| 1777714226 | 20° C | 45% | 1025.4 hPa | - | - | - | - |
| 1777713324 | 20.56° C | 44% | 1025.5 hPa | - | - | - | - |
| 1777712423 | 20° C | 46% | 1025.7 hPa | - | - | - | - |
| 1777711523 | 19.44° C | 47% | 1025.9 hPa | - | - | - | - |
| 1777710998 | 17.78° C | 57% | 1026.3 hPa | - | - | - | - |
| 1777710623 | 18.89° C | 50% | 1026 hPa | - | - | - | - |
| 1777709723 | 17.78° C | 57% | 1026.3 hPa | - | - | - | - |
| 1777709525 | 17.78° C | 61% | 1026.4 hPa | - | - | - | - |
| 1777708823 | 17.78° C | 61% | 1026.4 hPa | - | - | - | - |
| 1777707923 | 16.67° C | 61% | 1026.6 hPa | - | - | - | - |
| 1777707023 | 17.22° C | 65% | 1026.6 hPa | - | - | - | - |
| 1777706297 | 16.11° C | 68% | 1026.8 hPa | - | - | - | - |
| 1777706123 | 16.11° C | 68% | 1026.8 hPa | - | - | - | - |
| 1777705223 | 16.11° C | 71% | 1026.8 hPa | - | - | - | - |
| 1777704961 | 15.56° C | 71% | 1026.9 hPa | - | - | - | - |
| 1777704323 | 15.56° C | 71% | 1026.9 hPa | - | - | - | - |
| 1777703423 | 15° C | 71% | 1026.9 hPa | - | - | - | - |
| 1777702523 | 15° C | 76% | 1026.8 hPa | - | - | - | - |
| 1777702064 | 12.22° C | 10% | - | - | - | - | - |
| 1777701623 | 13.33° C | 97% | 1026.9 hPa | - | - | - | - |
| 1777700723 | 12.78° C | 10% | - | - | - | - | - |
| 1777699826 | 12.22° C | 10% | - | - | - | - | - |
* Rain since midnight (hover to see other rain measurements)
** Current wind speed in m/s (hover to see current wind gust speed)